createdAt,value
2022-11-29T00:01:06.715Z,83.15
2022-11-29T00:03:33.798Z,82.88
2022-11-29T00:06:07.401Z,83.40
2022-11-29T00:08:34.194Z,83.26
2022-11-29T00:11:09.050Z,83.63
2022-11-29T00:13:35.930Z,83.53
2022-11-29T00:16:14.773Z,83.19
2022-11-29T00:18:41.435Z,83.63
2022-11-29T00:21:08.857Z,83.51
2022-11-29T00:23:35.880Z,83.73
2022-11-29T00:26:07.082Z,83.52
2022-11-29T00:28:34.583Z,83.45
2022-11-29T00:31:01.684Z,83.44
2022-11-29T00:33:29.128Z,83.76
2022-11-29T00:35:55.922Z,84.23
2022-11-29T00:38:22.605Z,84.35
2022-11-29T00:40:52.874Z,84.22
2022-11-29T00:43:19.561Z,84.13
2022-11-29T00:45:46.295Z,83.96
2022-11-29T00:48:12.950Z,84.60
2022-11-29T00:50:39.635Z,84.25
2022-11-29T00:53:06.319Z,84.85
2022-11-29T00:55:32.985Z,84.56
2022-11-29T00:57:59.649Z,84.44
2022-11-29T01:00:26.407Z,84.73
2022-11-29T01:02:53.128Z,84.91
2022-11-29T01:05:20.203Z,84.83
2022-11-29T01:07:47.010Z,84.64
2022-11-29T01:10:13.738Z,84.47
2022-11-29T01:12:40.654Z,84.22
2022-11-29T01:15:07.967Z,83.84
2022-11-29T01:17:35.647Z,84.26
2022-11-29T01:20:02.385Z,83.96
2022-11-29T01:22:29.112Z,83.69
2022-11-29T01:24:55.777Z,83.57
2022-11-29T01:27:22.650Z,83.30
2022-11-29T01:29:49.467Z,83.63
2022-11-29T01:32:16.161Z,83.40
2022-11-29T01:34:43.128Z,83.50
2022-11-29T01:37:10.051Z,82.87
2022-11-29T01:39:37.221Z,82.87
2022-11-29T01:42:04.279Z,82.72
2022-11-29T01:44:30.879Z,82.71
2022-11-29T01:46:57.858Z,82.90
2022-11-29T01:49:28.429Z,82.44
2022-11-29T01:52:06.730Z,82.61
2022-11-29T01:54:36.469Z,82.52
2022-11-29T01:57:04.793Z,82.90
2022-11-29T01:59:31.717Z,82.90
2022-11-29T02:02:03.182Z,83.00
2022-11-29T02:04:34.018Z,83.23
2022-11-29T02:07:00.835Z,83.55
2022-11-29T02:09:27.683Z,83.27
2022-11-29T02:12:19.981Z,82.79
2022-11-29T02:15:24.906Z,83.06
2022-11-29T02:18:08.511Z,82.86
2022-11-29T02:21:03.563Z,82.78
2022-11-29T02:23:57.628Z,83.08
2022-11-29T02:26:49.920Z,83.36
2022-11-29T02:29:54.230Z,83.41
2022-11-29T02:32:38.702Z,83.76
2022-11-29T02:35:27.290Z,83.84
2022-11-29T02:38:18.754Z,84.20
2022-11-29T02:40:50.093Z,84.18
2022-11-29T02:43:31.017Z,84.79
2022-11-29T02:46:39.206Z,84.84
2022-11-29T02:49:30.895Z,84.75
2022-11-29T02:52:03.298Z,84.82
2022-11-29T02:54:38.935Z,85.48
2022-11-29T02:57:23.089Z,85.54
2022-11-29T03:00:07.205Z,85.87
2022-11-29T03:03:11.431Z,86.15
2022-11-29T03:05:52.474Z,85.94
2022-11-29T03:08:43.134Z,85.94
2022-11-29T03:11:38.389Z,85.96
2022-11-29T03:14:20.815Z,85.72
2022-11-29T03:16:47.671Z,85.49
2022-11-29T03:19:27.395Z,85.65
2022-11-29T03:22:14.202Z,84.97
2022-11-29T03:25:00.753Z,85.49
2022-11-29T03:27:55.605Z,85.45
2022-11-29T03:30:22.500Z,85.31
2022-11-29T03:33:05.025Z,85.18
2022-11-29T03:35:36.797Z,85.53
2022-11-29T03:38:07.934Z,86.05
2022-11-29T03:40:48.325Z,85.98
2022-11-29T03:43:33.681Z,85.68
2022-11-29T03:46:12.546Z,85.71
2022-11-29T03:48:51.988Z,85.78
2022-11-29T03:51:30.860Z,86.27
2022-11-29T03:54:01.476Z,86.25
2022-11-29T03:56:46.397Z,86.18
2022-11-29T03:59:43.471Z,86.56
2022-11-29T04:02:33.863Z,86.97
2022-11-29T04:05:38.838Z,86.91
2022-11-29T04:08:43.393Z,86.79
2022-11-29T04:11:54.618Z,86.61
2022-11-29T04:14:58.199Z,86.52
2022-11-29T04:17:36.754Z,86.77
2022-11-29T04:20:25.001Z,86.38
2022-11-29T04:23:19.450Z,86.22
2022-11-29T04:26:13.346Z,85.98
2022-11-29T04:28:45.806Z,85.91
2022-11-29T04:31:46.597Z,85.60
2022-11-29T04:34:44.160Z,85.68
2022-11-29T04:37:16.614Z,85.89
2022-11-29T04:39:56.003Z,85.79
2022-11-29T04:42:25.633Z,85.46
2022-11-29T04:45:06.521Z,85.17
2022-11-29T04:48:00.301Z,84.81
2022-11-29T04:50:35.943Z,84.22
2022-11-29T04:53:24.668Z,83.72
2022-11-29T04:56:11.229Z,83.91
2022-11-29T04:58:44.055Z,84.09
2022-11-29T05:01:28.102Z,83.56
2022-11-29T05:04:14.190Z,84.39
2022-11-29T05:06:49.321Z,84.17
2022-11-29T05:09:18.833Z,85.08
2022-11-29T05:12:11.040Z,85.21
2022-11-29T05:14:43.944Z,84.89
2022-11-29T05:17:26.644Z,84.93
2022-11-29T05:20:12.030Z,84.94
2022-11-29T05:22:58.584Z,85.00
2022-11-29T05:25:32.751Z,85.10
2022-11-29T05:28:09.828Z,86.05
2022-11-29T05:31:10.955Z,86.29
2022-11-29T05:33:56.089Z,86.94
2022-11-29T05:36:43.811Z,86.56
2022-11-29T05:39:33.170Z,86.82
2022-11-29T05:42:32.654Z,86.37
2022-11-29T05:45:20.582Z,86.79
2022-11-29T05:48:03.500Z,86.40
2022-11-29T05:50:40.419Z,85.95
2022-11-29T05:53:17.328Z,86.44
2022-11-29T05:55:58.275Z,86.65
2022-11-29T05:59:05.666Z,86.23
2022-11-29T06:01:44.782Z,86.55
2022-11-29T06:04:21.815Z,86.02
2022-11-29T06:06:48.467Z,86.52
2022-11-29T06:09:26.543Z,86.29
2022-11-29T06:11:56.794Z,86.75
2022-11-29T06:14:52.271Z,86.30
2022-11-29T06:17:25.876Z,85.93
2022-11-29T06:20:32.860Z,85.85
2022-11-29T06:23:06.455Z,85.99
2022-11-29T06:26:17.410Z,86.11
2022-11-29T06:29:14.555Z,86.63
2022-11-29T06:31:44.533Z,86.67
2022-11-29T06:34:42.644Z,86.85
2022-11-29T06:37:21.407Z,86.74
2022-11-29T06:39:48.384Z,86.55
2022-11-29T06:42:15.039Z,86.39
2022-11-29T06:44:42.850Z,86.33
2022-11-29T06:47:23.782Z,85.86
2022-11-29T06:49:56.886Z,84.94
2022-11-29T06:53:01.099Z,84.69
2022-11-29T06:55:39.225Z,84.64
2022-11-29T06:58:35.967Z,85.12
2022-11-29T07:01:21.246Z,84.79
2022-11-29T07:04:06.730Z,85.15
2022-11-29T07:06:35.034Z,84.89
2022-11-29T07:09:10.831Z,84.19
2022-11-29T07:11:38.010Z,84.04
2022-11-29T07:14:04.949Z,84.24
2022-11-29T07:17:10.083Z,84.79
2022-11-29T07:20:04.181Z,83.78
2022-11-29T07:23:04.752Z,83.82
2022-11-29T07:25:47.000Z,83.76
2022-11-29T07:28:39.784Z,83.34
2022-11-29T07:31:12.498Z,83.54
2022-11-29T07:33:51.125Z,83.73
2022-11-29T07:36:30.921Z,84.28
2022-11-29T07:39:12.755Z,84.20
2022-11-29T07:42:08.301Z,83.80
2022-11-29T07:44:53.782Z,83.20
2022-11-29T07:47:20.544Z,83.29
2022-11-29T07:49:47.246Z,83.23
2022-11-29T07:52:14.990Z,82.98
2022-11-29T07:54:45.702Z,82.97
2022-11-29T07:57:12.671Z,82.95
2022-11-29T07:59:39.286Z,82.28
2022-11-29T08:02:11.518Z,81.91
2022-11-29T08:04:44.090Z,82.21
2022-11-29T08:07:11.174Z,81.66
2022-11-29T08:09:37.908Z,81.41
2022-11-29T08:12:04.790Z,81.49
2022-11-29T08:14:33.315Z,81.30
2022-11-29T08:17:00.108Z,81.22
2022-11-29T08:19:26.796Z,81.20
2022-11-29T08:21:53.927Z,80.40
2022-11-29T08:24:20.675Z,80.46
2022-11-29T08:26:47.620Z,80.08
2022-11-29T08:29:14.664Z,79.94
2022-11-29T08:31:41.524Z,79.80
2022-11-29T08:34:09.167Z,80.05
2022-11-29T08:36:35.879Z,79.87
2022-11-29T08:39:08.957Z,80.22
2022-11-29T08:41:36.257Z,79.32
2022-11-29T08:44:04.942Z,79.26
2022-11-29T08:46:49.910Z,79.26
2022-11-29T08:49:16.604Z,79.81
2022-11-29T08:51:43.352Z,79.96
2022-11-29T08:54:10.362Z,80.74
2022-11-29T08:59:24.520Z,81.34
2022-11-29T09:01:51.248Z,81.34
2022-11-29T09:04:18.011Z,81.88
2022-11-29T09:06:44.685Z,81.12
2022-11-29T09:09:11.378Z,80.87
2022-11-29T09:11:38.058Z,80.61
2022-11-29T09:14:07.098Z,80.76
2022-11-29T09:16:38.045Z,80.66
2022-11-29T09:19:05.580Z,80.64
2022-11-29T09:21:34.357Z,80.94
2022-11-29T09:24:02.158Z,80.97
2022-11-29T09:26:31.513Z,80.71
2022-11-29T09:29:01.118Z,80.17
2022-11-29T09:31:29.624Z,79.44
2022-11-29T09:33:56.885Z,79.83
2022-11-29T09:36:28.374Z,79.67
2022-11-29T09:38:56.468Z,79.48
2022-11-29T09:41:35.742Z,79.97
2022-11-29T09:44:05.284Z,80.21
2022-11-29T09:46:39.664Z,80.13
2022-11-29T09:49:31.558Z,78.65
2022-11-29T09:52:19.662Z,78.43
2022-11-29T09:55:23.303Z,78.69
2022-11-29T09:57:50.711Z,78.14
2022-11-29T10:00:20.055Z,77.98
2022-11-29T10:02:54.515Z,77.72
2022-11-29T10:05:25.482Z,77.47
2022-11-29T10:07:56.451Z,76.97
2022-11-29T10:10:29.160Z,76.74
2022-11-29T10:13:00.928Z,75.81
2022-11-29T10:15:29.636Z,74.82
2022-11-29T10:18:04.812Z,75.74
2022-11-29T10:20:41.362Z,76.12
2022-11-29T10:23:20.884Z,76.02
2022-11-29T10:25:50.218Z,75.86
2022-11-29T10:28:20.130Z,76.74
2022-11-29T10:30:48.183Z,76.38
2022-11-29T10:33:27.662Z,76.43
2022-11-29T10:36:05.505Z,76.80
2022-11-29T10:38:32.419Z,75.98
2022-11-29T10:41:05.903Z,76.14
2022-11-29T10:43:32.681Z,76.07
2022-11-29T10:46:00.298Z,75.23
2022-11-29T10:48:31.657Z,76.02
2022-11-29T10:50:58.715Z,75.62
2022-11-29T10:53:33.080Z,75.83
2022-11-29T10:56:12.250Z,75.78
2022-11-29T10:58:53.735Z,74.29
2022-11-29T11:01:20.554Z,74.98
2022-11-29T11:03:55.038Z,74.79
2022-11-29T11:06:27.624Z,74.54
2022-11-29T11:09:21.495Z,74.85
2022-11-29T11:11:53.539Z,73.88
2022-11-29T11:14:51.409Z,74.18
2022-11-29T11:17:31.313Z,73.73
2022-11-29T11:20:15.633Z,72.57
2022-11-29T11:22:42.282Z,72.96
2022-11-29T11:25:35.243Z,72.94
2022-11-29T11:28:20.469Z,73.48
2022-11-29T11:30:57.385Z,73.31
2022-11-29T11:33:28.619Z,73.37
2022-11-29T11:36:08.790Z,73.66
2022-11-29T11:38:53.811Z,73.32
2022-11-29T11:41:53.505Z,73.14
2022-11-29T11:44:47.588Z,73.32
2022-11-29T11:47:20.333Z,73.27
2022-11-29T11:50:02.815Z,75.40
2022-11-29T11:52:40.033Z,75.07
2022-11-29T11:55:24.592Z,74.50
2022-11-29T11:58:16.580Z,74.36
2022-11-29T12:03:37.164Z,75.23
2022-11-29T12:06:18.849Z,74.50
2022-11-29T12:08:48.382Z,74.77
2022-11-29T12:11:17.630Z,75.02
2022-11-29T12:13:49.428Z,74.34
2022-11-29T12:16:36.519Z,74.58
2022-11-29T12:19:12.834Z,74.94
2022-11-29T12:21:43.800Z,74.50
2022-11-29T12:24:24.807Z,74.80
2022-11-29T12:26:57.543Z,74.49
2022-11-29T12:29:27.914Z,74.88
2022-11-29T12:32:01.750Z,74.72
2022-11-29T12:34:53.349Z,75.20
2022-11-29T12:37:27.204Z,75.48
2022-11-29T12:40:13.529Z,75.80
2022-11-29T12:42:42.296Z,75.35
2022-11-29T12:45:12.116Z,75.12
2022-11-29T12:47:51.529Z,74.83
2022-11-29T12:50:26.515Z,74.94
2022-11-29T12:52:56.203Z,74.85
2022-11-29T12:55:37.791Z,74.89
2022-11-29T12:58:17.994Z,74.35
2022-11-29T13:01:15.292Z,74.36
2022-11-29T13:03:59.279Z,73.91
2022-11-29T13:06:33.699Z,74.55
2022-11-29T13:09:20.438Z,74.80
2022-11-29T13:11:56.917Z,74.44
2022-11-29T13:14:59.013Z,74.87
2022-11-29T13:17:44.626Z,74.73
2022-11-29T13:20:25.534Z,75.23
2022-11-29T13:23:03.363Z,74.76
2022-11-29T13:25:40.195Z,74.65
2022-11-29T13:28:28.108Z,75.18
2022-11-29T13:31:00.202Z,75.09
2022-11-29T13:33:48.705Z,73.94
2022-11-29T13:36:39.766Z,73.89
2022-11-29T13:39:24.472Z,73.34
2022-11-29T13:42:01.211Z,73.49
2022-11-29T13:44:32.679Z,73.58
2022-11-29T13:47:07.552Z,73.74
2022-11-29T13:49:53.519Z,74.27
2022-11-29T13:52:26.545Z,74.55
2022-11-29T13:55:11.666Z,75.24
2022-11-29T13:58:20.654Z,75.28
2022-11-29T14:00:50.350Z,75.77
2022-11-29T14:03:23.322Z,75.84
2022-11-29T14:06:12.109Z,75.71
2022-11-29T14:09:21.675Z,75.91
2022-11-29T14:11:53.195Z,76.10
2022-11-29T14:14:25.347Z,76.06
2022-11-29T14:16:55.931Z,75.96
2022-11-29T14:19:36.965Z,76.16
2022-11-29T14:22:06.289Z,75.67
2022-11-29T14:24:33.152Z,76.24
2022-11-29T14:27:05.769Z,76.62
2022-11-29T14:29:47.640Z,76.88
2022-11-29T14:32:46.433Z,77.08
2022-11-29T14:35:27.039Z,76.92
2022-11-29T14:38:29.209Z,78.21
2022-11-29T14:40:59.723Z,77.72
2022-11-29T14:43:34.687Z,77.96
2022-11-29T14:46:16.836Z,77.91
2022-11-29T14:48:55.667Z,78.11
2022-11-29T14:51:24.119Z,78.29
2022-11-29T14:54:18.342Z,78.65
2022-11-29T14:56:46.526Z,78.91
2022-11-29T14:59:51.445Z,78.94
2022-11-29T15:02:18.166Z,79.65
2022-11-29T15:04:45.466Z,79.84
2022-11-29T15:07:17.049Z,80.53
2022-11-29T15:09:44.382Z,80.75
2022-11-29T15:12:23.331Z,80.95
2022-11-29T15:15:44.784Z,81.60
2022-11-29T15:18:23.473Z,81.96
2022-11-29T15:21:05.081Z,82.53
2022-11-29T15:23:40.322Z,82.33
2022-11-29T15:26:14.921Z,82.26
2022-11-29T15:28:41.635Z,82.40
2022-11-29T15:31:10.831Z,82.32
2022-11-29T15:33:40.074Z,82.35
2022-11-29T15:36:08.622Z,82.59
2022-11-29T15:38:44.422Z,82.38
2022-11-29T15:41:31.785Z,82.30
2022-11-29T15:44:01.909Z,82.16
2022-11-29T15:46:30.697Z,82.13
2022-11-29T15:49:15.604Z,82.08
2022-11-29T15:51:42.717Z,82.06
2022-11-29T15:54:27.160Z,81.68
2022-11-29T15:56:56.682Z,82.00
2022-11-29T15:59:32.573Z,82.29
2022-11-29T16:02:04.407Z,82.18
2022-11-29T16:04:31.346Z,81.79
2022-11-29T16:06:58.084Z,82.19
2022-11-29T16:09:40.587Z,82.10
2022-11-29T16:12:15.623Z,82.69
2022-11-29T16:14:59.695Z,83.29
2022-11-29T16:17:34.543Z,83.64
2022-11-29T16:20:16.714Z,83.25
2022-11-29T16:22:43.439Z,82.92
2022-11-29T16:25:18.737Z,82.54
2022-11-29T16:27:45.840Z,82.33
2022-11-29T16:30:23.728Z,81.95
2022-11-29T16:32:54.913Z,82.20
2022-11-29T16:35:26.987Z,82.01
2022-11-29T16:37:53.865Z,82.03
2022-11-29T16:40:21.594Z,81.61
2022-11-29T16:43:23.624Z,81.29
2022-11-29T16:46:22.742Z,81.17
2022-11-29T16:48:51.885Z,81.05
2022-11-29T16:51:39.830Z,80.91
2022-11-29T16:54:27.423Z,80.86
2022-11-29T16:56:56.202Z,80.89
2022-11-29T16:59:27.265Z,81.13
2022-11-29T17:01:56.597Z,80.60
2022-11-29T17:04:24.842Z,80.77
2022-11-29T17:06:53.905Z,80.60
2022-11-29T17:09:26.268Z,80.80
2022-11-29T17:11:54.281Z,80.68
2022-11-29T17:14:21.299Z,80.54
2022-11-29T17:16:51.900Z,80.78
2022-11-29T17:19:20.668Z,80.74
2022-11-29T17:21:47.748Z,80.52
2022-11-29T17:24:16.828Z,80.85
2022-11-29T17:26:43.943Z,80.50
2022-11-29T17:29:12.019Z,80.41
2022-11-29T17:31:38.985Z,80.41
2022-11-29T17:34:06.027Z,80.33
2022-11-29T17:36:32.752Z,80.04
2022-11-29T17:38:59.969Z,80.36
2022-11-29T17:41:27.887Z,80.59
2022-11-29T17:43:55.601Z,80.21
2022-11-29T17:46:27.965Z,80.48
2022-11-29T17:48:55.539Z,80.13
2022-11-29T17:51:53.583Z,80.06
2022-11-29T17:54:11.073Z,79.08
2022-11-29T17:56:37.936Z,79.12
2022-11-29T17:59:05.100Z,79.25
2022-11-29T18:01:33.653Z,79.15
2022-11-29T18:04:01.895Z,78.74
2022-11-29T18:06:50.196Z,78.50
2022-11-29T18:09:18.088Z,78.61
2022-11-29T18:11:48.688Z,78.80
2022-11-29T18:14:18.508Z,78.48
2022-11-29T18:16:45.680Z,78.65
2022-11-29T18:19:14.415Z,78.62
2022-11-29T18:21:43.366Z,78.23
2022-11-29T18:24:10.490Z,78.39
2022-11-29T18:26:37.870Z,78.38
2022-11-29T18:29:05.750Z,78.00
2022-11-29T18:31:35.065Z,77.65
2022-11-29T18:34:03.712Z,77.58
2022-11-29T18:36:32.464Z,77.60
2022-11-29T18:39:05.423Z,77.92
2022-11-29T18:41:32.538Z,78.16
2022-11-29T18:44:01.691Z,78.70
2022-11-29T18:46:36.613Z,78.46
2022-11-29T18:49:06.182Z,78.72
2022-11-29T18:51:34.201Z,78.79
2022-11-29T18:54:01.583Z,79.09
2022-11-29T18:56:30.520Z,79.58
2022-11-29T18:59:02.906Z,79.68
2022-11-29T19:01:31.388Z,79.88
2022-11-29T19:04:00.174Z,79.49
2022-11-29T19:06:31.780Z,79.92
2022-11-29T19:09:05.114Z,80.10
2022-11-29T19:11:33.134Z,80.02
2022-11-29T19:14:03.282Z,79.66
2022-11-29T19:16:31.538Z,79.61
2022-11-29T19:18:59.398Z,79.72
2022-11-29T19:21:27.516Z,79.61
2022-11-29T19:23:58.998Z,79.90
2022-11-29T19:26:26.997Z,79.76
2022-11-29T19:28:54.390Z,79.92
2022-11-29T19:31:27.119Z,80.06
2022-11-29T19:33:54.937Z,79.71
2022-11-29T19:36:23.721Z,79.68
2022-11-29T19:38:53.890Z,79.67
2022-11-29T19:41:23.663Z,80.09
2022-11-29T19:43:50.729Z,80.42
2022-11-29T19:46:20.324Z,80.36
2022-11-29T19:48:47.489Z,80.58
2022-11-29T19:51:17.492Z,80.56
2022-11-29T19:53:45.459Z,80.59
2022-11-29T19:56:15.507Z,80.25
2022-11-29T19:58:42.876Z,80.31
2022-11-29T20:01:12.044Z,80.87
2022-11-29T20:03:40.238Z,80.85
2022-11-29T20:06:08.134Z,81.02
2022-11-29T20:08:35.767Z,80.61
2022-11-29T20:11:10.488Z,80.71
2022-11-29T20:13:38.192Z,80.80
2022-11-29T20:16:09.606Z,81.13
2022-11-29T20:18:37.777Z,80.96
2022-11-29T20:21:06.495Z,80.88
2022-11-29T20:23:33.602Z,80.56
2022-11-29T20:26:01.026Z,80.17
2022-11-29T20:28:28.280Z,80.52
2022-11-29T20:30:55.142Z,80.48
2022-11-29T20:33:23.743Z,80.68
2022-11-29T20:36:03.482Z,79.96
2022-11-29T20:38:51.118Z,80.57
2022-11-29T20:41:37.566Z,80.16
2022-11-29T20:44:04.421Z,80.78
2022-11-29T20:46:31.726Z,80.42
2022-11-29T20:49:04.681Z,80.33
2022-11-29T20:52:02.325Z,80.55
2022-11-29T20:54:29.070Z,80.10
2022-11-29T20:56:55.731Z,79.52
2022-11-29T20:59:22.462Z,80.28
2022-11-29T21:01:49.192Z,80.40
2022-11-29T21:04:20.173Z,79.78
2022-11-29T21:06:49.722Z,79.80
2022-11-29T21:09:16.378Z,79.60
2022-11-29T21:11:43.220Z,79.66
2022-11-29T21:14:10.243Z,79.60
2022-11-29T21:16:37.078Z,80.02
2022-11-29T21:19:04.037Z,79.88
2022-11-29T21:21:38.194Z,78.44
2022-11-29T21:24:10.959Z,78.92
2022-11-29T21:26:42.338Z,79.18
2022-11-29T21:29:16.278Z,78.25
2022-11-29T21:31:43.717Z,78.27
2022-11-29T21:34:10.705Z,78.14
2022-11-29T21:36:38.209Z,78.47
2022-11-29T21:39:06.436Z,78.12
2022-11-29T21:41:33.555Z,78.55
2022-11-29T21:44:08.348Z,78.43
2022-11-29T21:46:35.424Z,78.33
2022-11-29T21:49:02.225Z,78.80
2022-11-29T21:51:28.950Z,79.38
2022-11-29T21:53:55.554Z,78.58
2022-11-29T21:56:22.224Z,79.58
2022-11-29T21:58:48.856Z,79.58
2022-11-29T22:01:17.947Z,79.97
2022-11-29T22:03:44.849Z,79.71
2022-11-29T22:06:14.136Z,78.35
2022-11-29T22:08:42.190Z,78.14
2022-11-29T22:11:10.946Z,77.83
2022-11-29T22:13:58.967Z,76.84
2022-11-29T22:16:26.137Z,75.37
2022-11-29T22:18:52.955Z,76.25
2022-11-29T22:21:19.681Z,76.57
2022-11-29T22:23:46.466Z,76.42
2022-11-29T22:26:13.336Z,76.96
2022-11-29T22:28:40.049Z,77.19
2022-11-29T22:31:09.214Z,77.03
2022-11-29T22:33:36.064Z,77.75
2022-11-29T22:36:04.057Z,76.99
2022-11-29T22:38:30.824Z,76.64
2022-11-29T22:41:09.649Z,76.75
2022-11-29T22:43:37.042Z,77.21
2022-11-29T22:46:08.862Z,74.85
2022-11-29T22:48:39.015Z,76.44
2022-11-29T22:51:13.916Z,76.67
2022-11-29T22:53:42.736Z,77.00
2022-11-29T22:56:11.337Z,77.50
2022-11-29T22:58:38.104Z,76.55
2022-11-29T23:01:07.053Z,76.76
2022-11-29T23:03:39.799Z,76.89
2022-11-29T23:06:10.994Z,77.34
2022-11-29T23:08:38.705Z,77.34
2022-11-29T23:11:06.682Z,77.05
2022-11-29T23:13:38.205Z,77.00
2022-11-29T23:16:07.825Z,77.10
2022-11-29T23:18:35.234Z,76.95
2022-11-29T23:21:11.562Z,77.10
2022-11-29T23:23:38.579Z,77.83
2022-11-29T23:26:06.799Z,77.61
2022-11-29T23:28:34.903Z,78.07
2022-11-29T23:31:02.108Z,78.19
2022-11-29T23:33:28.851Z,77.93
2022-11-29T23:36:04.048Z,76.74
2022-11-29T23:38:31.024Z,77.28
2022-11-29T23:40:57.718Z,77.63
2022-11-29T23:43:24.719Z,77.58
2022-11-29T23:45:51.425Z,77.81
2022-11-29T23:48:18.110Z,77.46
2022-11-29T23:50:44.910Z,77.07
2022-11-29T23:53:13.467Z,77.10
2022-11-29T23:55:40.503Z,76.92
2022-11-29T23:58:07.280Z,76.67
